createdAt,value
2022-09-24T00:01:49.002Z,7.05
2022-09-24T00:04:16.963Z,6.30
2022-09-24T00:06:46.401Z,5.47
2022-09-24T00:09:16.268Z,7.85
2022-09-24T00:11:45.817Z,4.15
2022-09-24T00:14:15.359Z,7.13
2022-09-24T00:16:44.281Z,5.78
2022-09-24T00:19:14.029Z,8.07
2022-09-24T00:21:42.857Z,7.72
2022-09-24T00:24:34.900Z,7.78
2022-09-24T00:27:03.254Z,9.73
2022-09-24T00:29:34.352Z,9.30
2022-09-24T00:32:03.722Z,6.85
2022-09-24T00:34:32.043Z,7.63
2022-09-24T00:37:00.246Z,7.15
2022-09-24T00:39:28.633Z,6.55
2022-09-24T00:41:56.563Z,5.85
2022-09-24T00:44:53.664Z,9.50
2022-09-24T00:47:32.032Z,5.28
2022-09-24T00:50:18.645Z,4.72
2022-09-24T00:52:52.817Z,7.65
2022-09-24T00:55:23.658Z,8.15
2022-09-24T00:57:56.498Z,8.02
2022-09-24T01:00:26.533Z,5.50
2022-09-24T01:03:01.037Z,5.75
2022-09-24T01:05:29.710Z,8.25
2022-09-24T01:07:58.172Z,7.25
2022-09-24T01:10:51.693Z,9.18
2022-09-24T01:13:43.277Z,7.57
2022-09-24T01:16:20.727Z,4.85
2022-09-24T01:18:58.059Z,5.20
2022-09-24T01:21:33.845Z,5.13
2022-09-24T01:24:43.325Z,6.40
2022-09-24T01:27:17.568Z,7.50
2022-09-24T01:30:02.476Z,6.03
2022-09-24T01:32:37.335Z,7.20
2022-09-24T01:35:11.798Z,5.63
2022-09-24T01:37:42.786Z,7.50
2022-09-24T01:40:12.726Z,6.05
2022-09-24T01:42:44.515Z,7.60
2022-09-24T01:45:17.407Z,7.68
2022-09-24T01:47:45.999Z,6.15
2022-09-24T01:50:17.180Z,8.13
2022-09-24T01:52:51.416Z,7.55
2022-09-24T01:55:25.600Z,7.38
2022-09-24T01:57:57.624Z,9.10
2022-09-24T02:00:28.146Z,6.93
2022-09-24T02:03:00.981Z,7.10
2022-09-24T02:05:34.614Z,8.27
2022-09-24T02:08:08.181Z,6.45
2022-09-24T02:10:46.442Z,7.20
2022-09-24T02:13:19.097Z,5.55
2022-09-24T02:15:52.447Z,6.78
2022-09-24T02:18:25.316Z,8.77
2022-09-24T02:20:54.377Z,6.85
2022-09-24T02:23:24.386Z,6.63
2022-09-24T02:25:57.956Z,5.63
2022-09-24T02:28:26.724Z,5.65
2022-09-24T02:31:02.877Z,7.35
2022-09-24T02:33:50.688Z,5.63
2022-09-24T02:36:18.808Z,6.72
2022-09-24T02:38:47.381Z,5.50
2022-09-24T02:41:16.088Z,6.15
2022-09-24T02:43:44.234Z,7.20
2022-09-24T02:46:13.578Z,5.72
2022-09-24T02:48:41.704Z,6.78
2022-09-24T02:51:09.892Z,6.55
2022-09-24T02:53:37.801Z,5.22
2022-09-24T02:56:07.694Z,6.32
2022-09-24T02:58:37.361Z,6.25
2022-09-24T03:01:05.665Z,7.28
2022-09-24T03:03:35.014Z,4.57
2022-09-24T03:06:02.948Z,6.80
2022-09-24T03:08:33.131Z,5.65
2022-09-24T03:11:01.028Z,8.35
2022-09-24T03:13:28.949Z,8.60
2022-09-24T03:15:57.080Z,8.52
2022-09-24T03:18:25.185Z,8.25
2022-09-24T03:20:58.268Z,7.28
2022-09-24T03:23:26.552Z,6.97
2022-09-24T03:25:54.860Z,10.40
2022-09-24T03:28:23.330Z,6.47
2022-09-24T03:31:02.745Z,6.68
2022-09-24T03:33:32.548Z,8.90
2022-09-24T03:36:04.291Z,8.80
2022-09-24T03:38:32.237Z,7.60
2022-09-24T03:41:01.276Z,8.77
2022-09-24T03:43:29.586Z,9.85
2022-09-24T03:45:57.549Z,9.57
2022-09-24T03:48:27.144Z,11.55
2022-09-24T03:50:55.428Z,11.32
2022-09-24T03:53:24.826Z,14.48
2022-09-24T03:55:56.017Z,9.85
2022-09-24T03:58:24.999Z,14.20
2022-09-24T04:00:54.186Z,12.43
2022-09-24T04:03:22.692Z,12.25
2022-09-24T04:05:52.073Z,9.80
2022-09-24T04:08:20.167Z,8.82
2022-09-24T04:10:50.317Z,10.73
2022-09-24T04:13:19.466Z,8.73
2022-09-24T04:15:48.129Z,9.98
2022-09-24T04:18:16.231Z,7.90
2022-09-24T04:20:44.281Z,11.50
2022-09-24T04:23:12.844Z,9.77
2022-09-24T04:25:41.542Z,8.82
2022-09-24T04:28:12.375Z,8.90
2022-09-24T04:30:40.587Z,10.35
2022-09-24T04:33:08.771Z,9.68
2022-09-24T04:35:37.344Z,8.15
2022-09-24T04:38:06.287Z,7.60
2022-09-24T04:40:34.417Z,6.97
2022-09-24T04:43:06.093Z,8.23
2022-09-24T04:45:35.603Z,7.25
2022-09-24T04:48:03.537Z,7.65
2022-09-24T04:50:33.277Z,7.50
2022-09-24T04:53:02.438Z,7.30
2022-09-24T04:55:32.162Z,6.15
2022-09-24T04:58:00.454Z,6.15
2022-09-24T05:00:28.448Z,5.38
2022-09-24T05:03:10.274Z,6.68
2022-09-24T05:05:38.693Z,7.55
2022-09-24T05:08:06.830Z,6.90
2022-09-24T05:10:34.768Z,8.57
2022-09-24T05:13:03.215Z,6.55
2022-09-24T05:15:31.281Z,6.40
2022-09-24T05:18:00.569Z,10.60
2022-09-24T05:20:28.507Z,7.50
2022-09-24T05:22:56.478Z,8.98
2022-09-24T05:25:24.548Z,6.65
2022-09-24T05:27:53.320Z,7.47
2022-09-24T05:30:23.139Z,9.35
2022-09-24T05:32:52.439Z,9.73
2022-09-24T05:35:22.835Z,10.52
2022-09-24T05:37:53.387Z,8.05
2022-09-24T05:40:39.973Z,8.88
2022-09-24T05:43:07.995Z,9.23
2022-09-24T05:45:35.949Z,10.60
2022-09-24T05:48:04.257Z,14.85
2022-09-24T05:50:34.919Z,10.55
2022-09-24T05:53:03.031Z,12.30
2022-09-24T05:55:32.513Z,9.88
2022-09-24T05:58:04.809Z,11.40
2022-09-24T06:00:32.738Z,13.30
2022-09-24T06:03:08.279Z,16.08
2022-09-24T06:05:37.764Z,11.40
2022-09-24T06:08:06.784Z,11.48
2022-09-24T06:10:34.725Z,8.25
2022-09-24T06:13:02.652Z,11.80
2022-09-24T06:15:31.050Z,13.57
2022-09-24T06:17:59.027Z,12.10
2022-09-24T06:20:27.285Z,9.50
2022-09-24T06:22:58.513Z,7.32
2022-09-24T06:25:27.021Z,9.68
2022-09-24T06:28:00.718Z,9.02
2022-09-24T06:30:30.133Z,11.30
2022-09-24T06:33:03.254Z,8.00
2022-09-24T06:35:31.213Z,7.18
2022-09-24T06:38:00.613Z,9.00
2022-09-24T06:40:32.497Z,7.88
2022-09-24T06:43:03.734Z,8.55
2022-09-24T06:45:31.708Z,6.80
2022-09-24T06:48:02.239Z,8.88
2022-09-24T06:50:33.292Z,6.60
2022-09-24T06:53:06.540Z,6.22
2022-09-24T06:55:35.933Z,5.32
2022-09-24T06:58:06.305Z,6.75
2022-09-24T07:00:34.883Z,6.80
2022-09-24T07:03:03.095Z,7.75
2022-09-24T07:05:31.069Z,5.65
2022-09-24T07:07:59.008Z,9.07
2022-09-24T07:10:28.632Z,5.25
2022-09-24T07:12:56.766Z,6.38
2022-09-24T07:15:24.726Z,6.25
2022-09-24T07:17:56.579Z,5.68
2022-09-24T07:20:24.973Z,6.95
2022-09-24T07:22:52.915Z,4.57
2022-09-24T07:25:20.948Z,3.50
2022-09-24T07:27:50.354Z,3.50
2022-09-24T07:30:18.773Z,3.40
2022-09-24T07:32:46.751Z,4.13
2022-09-24T07:35:15.418Z,3.50
2022-09-24T07:37:43.344Z,6.55
2022-09-24T07:40:12.023Z,6.47
2022-09-24T07:42:48.416Z,8.82
2022-09-24T07:45:18.350Z,7.18
2022-09-24T07:47:46.401Z,5.88
2022-09-24T07:50:14.340Z,3.55
2022-09-24T07:52:42.288Z,6.57
2022-09-24T07:55:10.711Z,3.30
2022-09-24T07:57:39.392Z,6.80
2022-09-24T08:00:09.056Z,5.82
2022-09-24T08:02:40.867Z,7.55
2022-09-24T08:05:09.618Z,4.70
2022-09-24T08:07:37.561Z,6.88
2022-09-24T08:10:06.293Z,6.15
2022-09-24T08:12:34.576Z,6.10
2022-09-24T08:15:02.537Z,5.85
2022-09-24T08:17:30.517Z,5.00
2022-09-24T08:20:00.172Z,5.43
2022-09-24T08:22:28.152Z,4.38
2022-09-24T08:24:57.929Z,4.13
2022-09-24T08:27:26.337Z,6.40
2022-09-24T08:29:54.419Z,4.78
2022-09-24T08:32:22.510Z,4.85
2022-09-24T08:34:52.665Z,3.55
2022-09-24T08:37:22.181Z,4.35
2022-09-24T08:39:50.209Z,5.47
2022-09-24T08:42:34.905Z,5.13
2022-09-24T08:45:21.502Z,4.97
2022-09-24T08:47:54.973Z,2.97
2022-09-24T08:50:25.561Z,5.47
2022-09-24T08:53:14.581Z,3.85
2022-09-24T08:55:46.750Z,3.22
2022-09-24T08:58:29.807Z,3.67
2022-09-24T09:01:03.781Z,3.42
2022-09-24T09:03:38.255Z,4.72
2022-09-24T09:06:13.374Z,3.65
2022-09-24T09:09:09.267Z,3.90
2022-09-24T09:11:40.747Z,3.55
2022-09-24T09:14:17.638Z,3.65
2022-09-24T09:16:51.524Z,3.42
2022-09-24T09:19:22.255Z,5.28
2022-09-24T09:21:54.468Z,2.80
2022-09-24T09:24:31.316Z,5.78
2022-09-24T09:26:59.659Z,3.95
2022-09-24T09:29:28.867Z,3.45
2022-09-24T09:32:09.988Z,3.15
2022-09-24T09:34:52.871Z,2.90
2022-09-24T09:37:29.577Z,3.58
2022-09-24T09:40:10.931Z,2.55
2022-09-24T09:42:40.559Z,4.45
2022-09-24T09:45:32.558Z,3.08
2022-09-24T09:48:03.140Z,4.55
2022-09-24T09:50:37.656Z,3.15
2022-09-24T09:53:06.277Z,3.05
2022-09-24T09:55:38.313Z,5.40
2022-09-24T09:58:19.565Z,2.78
2022-09-24T10:00:49.769Z,2.03
2022-09-24T10:03:27.327Z,3.67
2022-09-24T10:05:57.960Z,3.05
2022-09-24T10:08:26.927Z,2.55
2022-09-24T10:10:57.077Z,5.90
2022-09-24T10:13:25.889Z,2.95
2022-09-24T10:15:55.958Z,4.63
2022-09-24T10:18:30.442Z,3.88
2022-09-24T10:20:59.013Z,2.95
2022-09-24T10:23:35.576Z,1.85
2022-09-24T10:26:06.544Z,3.15
2022-09-24T10:28:53.711Z,2.58
2022-09-24T10:31:24.463Z,2.65
2022-09-24T10:33:56.459Z,4.57
2022-09-24T10:36:26.210Z,3.53
2022-09-24T10:39:04.843Z,3.30
2022-09-24T10:41:34.683Z,3.22
2022-09-24T10:44:06.289Z,4.40
2022-09-24T10:46:50.162Z,3.05
2022-09-24T10:49:31.987Z,3.08
2022-09-24T10:52:10.830Z,3.17
2022-09-24T10:54:56.330Z,5.18
2022-09-24T10:57:32.937Z,3.33
2022-09-24T11:00:09.169Z,2.75
2022-09-24T11:03:12.105Z,2.20
2022-09-24T11:05:46.190Z,2.95
2022-09-24T11:08:26.335Z,3.33
2022-09-24T11:11:18.782Z,5.70
2022-09-24T11:14:02.193Z,3.65
2022-09-24T11:16:45.305Z,3.60
2022-09-24T11:19:24.261Z,4.70
2022-09-24T11:22:12.634Z,3.15
2022-09-24T11:24:53.501Z,4.55
2022-09-24T11:27:38.726Z,3.40
2022-09-24T11:30:13.213Z,3.00
2022-09-24T11:32:57.284Z,3.65
2022-09-24T11:35:46.293Z,4.20
2022-09-24T11:38:19.163Z,4.10
2022-09-24T11:41:05.411Z,2.85
2022-09-24T11:44:27.150Z,5.10
2022-09-24T11:47:10.513Z,2.33
2022-09-24T11:49:55.888Z,3.25
2022-09-24T11:52:32.881Z,2.92
2022-09-24T11:55:11.229Z,2.30
2022-09-24T11:57:45.511Z,2.65
2022-09-24T12:00:17.837Z,2.67
2022-09-24T12:02:51.254Z,3.67
2022-09-24T12:05:28.510Z,1.60
2022-09-24T12:08:01.321Z,1.92
2022-09-24T12:10:36.095Z,2.05
2022-09-24T12:13:13.460Z,1.80
2022-09-24T12:15:52.789Z,1.38
2022-09-24T12:18:27.358Z,1.48
2022-09-24T12:21:01.723Z,2.00
2022-09-24T12:23:33.114Z,1.23
2022-09-24T12:26:03.992Z,2.50
2022-09-24T12:28:59.629Z,3.38
2022-09-24T12:31:50.908Z,2.05
2022-09-24T12:34:29.196Z,2.75
2022-09-24T12:37:02.336Z,2.38
2022-09-24T12:39:37.632Z,2.50
2022-09-24T12:42:09.169Z,2.60
2022-09-24T12:44:44.185Z,1.52
2022-09-24T12:47:19.964Z,2.17
2022-09-24T12:49:55.744Z,1.40
2022-09-24T12:52:27.793Z,2.17
2022-09-24T12:55:00.492Z,2.00
2022-09-24T12:57:32.217Z,2.10
2022-09-24T13:00:02.298Z,2.08
2022-09-24T13:02:33.251Z,3.53
2022-09-24T13:05:28.284Z,2.05
2022-09-24T13:07:59.490Z,2.50
2022-09-24T13:10:29.901Z,1.80
2022-09-24T13:13:00.008Z,1.52
2022-09-24T13:15:34.207Z,1.73
2022-09-24T13:18:19.396Z,3.17
2022-09-24T13:21:01.252Z,1.80
2022-09-24T13:23:35.385Z,3.88
2022-09-24T13:26:06.086Z,2.90
2022-09-24T13:28:51.436Z,1.33
2022-09-24T13:31:26.785Z,2.45
2022-09-24T13:33:58.457Z,1.38
2022-09-24T13:36:34.740Z,2.05
2022-09-24T13:39:06.143Z,1.25
2022-09-24T13:41:46.531Z,3.05
2022-09-24T13:44:20.297Z,4.05
2022-09-24T13:46:55.161Z,0.88
2022-09-24T13:49:24.841Z,3.53
2022-09-24T13:52:07.086Z,1.33
2022-09-24T13:54:39.813Z,1.58
2022-09-24T13:57:13.741Z,1.58
2022-09-24T13:59:41.845Z,1.05
2022-09-24T14:02:26.949Z,2.80
2022-09-24T14:04:57.439Z,2.65
2022-09-24T14:07:28.612Z,1.63
2022-09-24T14:10:06.094Z,1.13
2022-09-24T14:12:34.486Z,2.13
2022-09-24T14:15:06.095Z,0.80
2022-09-24T14:17:35.189Z,0.95
2022-09-24T14:20:03.551Z,1.40
2022-09-24T14:22:38.855Z,0.77
2022-09-24T14:25:11.073Z,0.70
2022-09-24T14:27:44.585Z,0.82
2022-09-24T14:30:20.442Z,0.85
2022-09-24T14:32:52.603Z,0.95
2022-09-24T14:35:29.609Z,1.65
2022-09-24T14:38:06.206Z,2.28
2022-09-24T14:40:43.177Z,0.90
2022-09-24T14:43:19.077Z,1.25
2022-09-24T14:45:48.091Z,4.80
2022-09-24T14:48:26.093Z,1.35
2022-09-24T14:50:54.170Z,1.20
2022-09-24T14:53:27.090Z,1.27
2022-09-24T14:55:55.270Z,1.05
2022-09-24T14:58:37.456Z,1.60
2022-09-24T15:01:13.946Z,2.22
2022-09-24T15:03:44.531Z,3.20
2022-09-24T15:06:21.266Z,3.35
2022-09-24T15:09:00.700Z,3.08
2022-09-24T15:11:31.456Z,3.13
2022-09-24T15:14:02.006Z,2.53
2022-09-24T15:16:33.662Z,3.53
2022-09-24T15:19:20.075Z,1.90
2022-09-24T15:21:49.665Z,1.42
2022-09-24T15:24:20.516Z,2.15
2022-09-24T15:26:50.882Z,1.92
2022-09-24T15:29:24.569Z,1.85
2022-09-24T15:31:52.692Z,5.10
2022-09-24T15:34:20.714Z,5.75
2022-09-24T15:36:49.498Z,1.63
2022-09-24T15:39:20.455Z,2.35
2022-09-24T15:41:48.582Z,2.75
2022-09-24T15:44:22.980Z,4.72
2022-09-24T15:46:52.171Z,3.53
2022-09-24T15:49:22.286Z,2.85
2022-09-24T15:51:52.677Z,2.20
2022-09-24T15:54:24.743Z,2.50
2022-09-24T15:56:53.047Z,2.25
2022-09-24T15:59:22.671Z,0.80
2022-09-24T16:01:53.494Z,2.60
2022-09-24T16:04:21.881Z,2.22
2022-09-24T16:06:50.295Z,1.20
2022-09-24T16:09:18.383Z,1.40
2022-09-24T16:11:47.928Z,1.88
2022-09-24T16:14:15.884Z,1.73
2022-09-24T16:16:43.817Z,2.47
2022-09-24T16:19:12.591Z,1.10
2022-09-24T16:21:40.810Z,1.30
2022-09-24T16:24:08.767Z,4.60
2022-09-24T16:26:37.403Z,2.05
2022-09-24T16:29:10.068Z,5.10
2022-09-24T16:31:38.167Z,2.15
2022-09-24T16:34:06.157Z,1.17
2022-09-24T16:36:34.066Z,2.22
2022-09-24T16:39:02.183Z,1.65
2022-09-24T16:41:34.286Z,1.42
2022-09-24T16:44:02.403Z,0.88
2022-09-24T16:46:32.126Z,1.50
2022-09-24T16:49:00.098Z,0.70
2022-09-24T16:51:28.122Z,2.92
2022-09-24T16:53:56.571Z,1.55
2022-09-24T16:56:24.721Z,1.42
2022-09-24T16:58:52.930Z,1.55
2022-09-24T17:01:22.822Z,1.50
2022-09-24T17:03:56.774Z,0.80
2022-09-24T17:06:26.846Z,3.42
2022-09-24T17:09:12.677Z,2.08
2022-09-24T17:11:41.257Z,1.10
2022-09-24T17:14:12.380Z,2.08
2022-09-24T17:16:41.208Z,2.83
2022-09-24T17:19:11.864Z,1.35
2022-09-24T17:21:42.406Z,2.75
2022-09-24T17:24:11.223Z,1.50
2022-09-24T17:26:39.555Z,7.55
2022-09-24T17:29:07.663Z,18.10
2022-09-24T17:31:35.645Z,10.88
2022-09-24T17:34:06.036Z,2.28
2022-09-24T17:36:36.223Z,3.60
2022-09-24T17:39:04.523Z,3.05
2022-09-24T17:41:32.572Z,1.90
2022-09-24T17:44:00.765Z,3.10
2022-09-24T17:46:30.455Z,1.38
2022-09-24T17:48:59.804Z,2.17
2022-09-24T17:51:32.618Z,2.80
2022-09-24T17:54:03.531Z,2.42
2022-09-24T17:56:33.262Z,2.13
2022-09-24T17:59:01.579Z,2.00
2022-09-24T18:01:33.537Z,4.53
2022-09-24T18:04:01.743Z,2.05
2022-09-24T18:06:33.176Z,4.57
2022-09-24T18:09:03.301Z,6.28
2022-09-24T18:11:33.216Z,9.13
2022-09-24T18:14:03.294Z,5.43
2022-09-24T18:16:33.033Z,5.15
2022-09-24T18:19:02.413Z,2.30
2022-09-24T18:21:32.021Z,4.32
2022-09-24T18:24:02.835Z,2.17
2022-09-24T18:26:34.246Z,1.35
2022-09-24T18:29:05.858Z,1.42
2022-09-24T18:31:35.111Z,1.63
2022-09-24T18:34:06.189Z,9.20
2022-09-24T18:36:36.055Z,2.22
2022-09-24T18:39:07.236Z,2.90
2022-09-24T18:41:36.988Z,2.38
2022-09-24T18:44:05.559Z,5.30
2022-09-24T18:46:34.670Z,2.88
2022-09-24T18:49:03.210Z,4.00
2022-09-24T18:51:32.881Z,5.00
2022-09-24T18:54:03.002Z,6.00
2022-09-24T18:56:32.912Z,3.55
2022-09-24T18:59:07.141Z,5.07
2022-09-24T19:01:37.024Z,6.22
2022-09-24T19:04:05.562Z,3.65
2022-09-24T19:06:36.160Z,3.58
2022-09-24T19:09:05.971Z,4.25
2022-09-24T19:11:36.151Z,5.55
2022-09-24T19:14:04.537Z,3.78
2022-09-24T19:16:32.945Z,3.70
2022-09-24T19:19:02.435Z,3.38
2022-09-24T19:21:30.783Z,5.10
2022-09-24T19:23:59.613Z,5.20
2022-09-24T19:26:29.616Z,8.13
2022-09-24T19:28:59.290Z,2.25
2022-09-24T19:31:29.936Z,5.30
2022-09-24T19:33:58.591Z,3.97
2022-09-24T19:36:26.504Z,9.68
2022-09-24T19:38:54.776Z,2.42
2022-09-24T19:41:25.147Z,6.00
2022-09-24T19:43:54.061Z,6.30
2022-09-24T19:46:25.663Z,5.32
2022-09-24T19:48:54.853Z,5.47
2022-09-24T19:51:24.893Z,3.38
2022-09-24T19:53:54.584Z,7.20
2022-09-24T19:56:25.354Z,4.53
2022-09-24T19:58:54.716Z,6.63
2022-09-24T20:01:26.184Z,5.32
2022-09-24T20:03:54.186Z,6.28
2022-09-24T20:06:24.117Z,5.20
2022-09-24T20:08:52.726Z,4.93
2022-09-24T20:11:22.438Z,3.28
2022-09-24T20:13:51.975Z,4.07
2022-09-24T20:16:21.862Z,7.43
2022-09-24T20:18:53.866Z,2.20
2022-09-24T20:21:21.784Z,2.85
2022-09-24T20:23:50.284Z,6.45
2022-09-24T20:26:36.031Z,5.07
2022-09-24T20:29:07.049Z,3.25
2022-09-24T20:31:35.066Z,2.67
2022-09-24T20:34:05.093Z,5.55
2022-09-24T20:36:33.153Z,10.00
2022-09-24T20:39:01.059Z,2.53
2022-09-24T20:41:29.024Z,6.20
2022-09-24T20:43:56.943Z,8.52
2022-09-24T20:46:27.734Z,7.72
2022-09-24T20:48:58.587Z,6.28
2022-09-24T20:51:29.861Z,3.22
2022-09-24T20:53:59.970Z,3.47
2022-09-24T20:56:30.638Z,5.78
2022-09-24T20:59:00.964Z,4.72
2022-09-24T21:01:29.123Z,3.05
2022-09-24T21:03:58.363Z,4.45
2022-09-24T21:06:27.870Z,3.15
2022-09-24T21:08:55.807Z,7.40
2022-09-24T21:11:26.556Z,9.05
2022-09-24T21:13:57.081Z,3.28
2022-09-24T21:16:28.934Z,7.18
2022-09-24T21:18:57.053Z,8.65
2022-09-24T21:21:28.765Z,5.03
2022-09-24T21:23:58.882Z,8.35
2022-09-24T21:26:28.549Z,5.50
2022-09-24T21:28:59.677Z,5.75
2022-09-24T21:31:29.879Z,2.92
2022-09-24T21:33:57.807Z,3.50
2022-09-24T21:36:29.438Z,4.05
2022-09-24T21:38:58.939Z,5.10
2022-09-24T21:41:28.969Z,2.67
2022-09-24T21:43:57.605Z,5.75
2022-09-24T21:46:27.089Z,4.63
2022-09-24T21:48:56.585Z,4.60
2022-09-24T21:51:26.928Z,4.32
2022-09-24T21:54:01.702Z,4.35
2022-09-24T21:56:30.199Z,1.67
2022-09-24T21:58:59.227Z,1.17
2022-09-24T22:01:29.376Z,0.70
2022-09-24T22:03:59.105Z,2.30
2022-09-24T22:06:28.951Z,2.35
2022-09-24T22:09:02.587Z,5.82
2022-09-24T22:11:31.195Z,3.83
2022-09-24T22:14:01.340Z,4.05
2022-09-24T22:16:30.415Z,5.07
2022-09-24T22:18:58.604Z,1.77
2022-09-24T22:21:27.177Z,2.72
2022-09-24T22:23:56.018Z,4.93
2022-09-24T22:26:26.375Z,3.28
2022-09-24T22:28:55.231Z,4.00
2022-09-24T22:31:23.600Z,5.10
2022-09-24T22:34:09.566Z,0.65
2022-09-24T22:36:37.670Z,1.55
2022-09-24T22:39:06.974Z,0.82
2022-09-24T22:41:38.766Z,4.85
2022-09-24T22:44:07.405Z,2.03
2022-09-24T22:46:39.684Z,1.15
2022-09-24T22:49:08.223Z,0.77
2022-09-24T22:51:40.178Z,0.82
2022-09-24T22:54:09.703Z,0.65
2022-09-24T22:56:39.224Z,1.13
2022-09-24T22:59:07.537Z,2.50
2022-09-24T23:01:40.355Z,2.88
2022-09-24T23:04:08.614Z,1.67
2022-09-24T23:06:37.326Z,1.20
2022-09-24T23:09:06.314Z,1.50
2022-09-24T23:11:35.832Z,0.60
2022-09-24T23:14:06.997Z,1.13
2022-09-24T23:16:36.864Z,3.20
2022-09-24T23:19:07.459Z,1.60
2022-09-24T23:21:36.059Z,0.57
2022-09-24T23:24:07.060Z,0.95
2022-09-24T23:26:35.674Z,1.08
2022-09-24T23:29:05.085Z,0.40
2022-09-24T23:31:34.327Z,2.08
2022-09-24T23:34:03.144Z,1.02
2022-09-24T23:36:32.883Z,0.50
2022-09-24T23:39:01.708Z,1.13
2022-09-24T23:41:31.589Z,1.10
2022-09-24T23:43:59.650Z,3.90
2022-09-24T23:46:29.600Z,1.27
2022-09-24T23:48:57.960Z,0.68
2022-09-24T23:51:26.465Z,1.05
2022-09-24T23:53:54.527Z,0.80
2022-09-24T23:56:22.683Z,0.85
2022-09-24T23:58:50.895Z,1.50
